sensor_id;sensor_type;location;lat;lon;timestamp;P1;durP1;ratioP1;P2;durP2;ratioP2
22648;SDS011;11491;41.942;24.220;2023-04-09T00:00:41;24.42;;;16.45;;
22648;SDS011;11491;41.942;24.220;2023-04-09T00:03:08;25.38;;;17.10;;
22648;SDS011;11491;41.942;24.220;2023-04-09T00:05:37;30.08;;;20.90;;
22648;SDS011;11491;41.942;24.220;2023-04-09T00:08:06;39.13;;;23.48;;
22648;SDS011;11491;41.942;24.220;2023-04-09T00:10:33;42.72;;;23.67;;
22648;SDS011;11491;41.942;24.220;2023-04-09T00:13:00;25.30;;;17.35;;
22648;SDS011;11491;41.942;24.220;2023-04-09T00:15:27;26.05;;;17.38;;
22648;SDS011;11491;41.942;24.220;2023-04-09T00:17:53;30.88;;;19.25;;
22648;SDS011;11491;41.942;24.220;2023-04-09T00:20:20;29.48;;;19.10;;
22648;SDS011;11491;41.942;24.220;2023-04-09T00:22:47;30.98;;;19.08;;
22648;SDS011;11491;41.942;24.220;2023-04-09T00:25:17;34.42;;;20.88;;
22648;SDS011;11491;41.942;24.220;2023-04-09T00:27:44;29.75;;;19.60;;
22648;SDS011;11491;41.942;24.220;2023-04-09T00:30:11;31.25;;;20.05;;
22648;SDS011;11491;41.942;24.220;2023-04-09T00:32:38;32.67;;;19.88;;
22648;SDS011;11491;41.942;24.220;2023-04-09T00:35:04;26.77;;;16.98;;
22648;SDS011;11491;41.942;24.220;2023-04-09T00:37:32;24.77;;;16.52;;
22648;SDS011;11491;41.942;24.220;2023-04-09T00:39:58;26.45;;;15.85;;
22648;SDS011;11491;41.942;24.220;2023-04-09T00:42:26;22.00;;;15.73;;
22648;SDS011;11491;41.942;24.220;2023-04-09T00:44:57;25.95;;;16.42;;
22648;SDS011;11491;41.942;24.220;2023-04-09T00:47:23;25.33;;;16.25;;
22648;SDS011;11491;41.942;24.220;2023-04-09T00:49:51;27.00;;;16.77;;
22648;SDS011;11491;41.942;24.220;2023-04-09T00:52:18;22.20;;;15.10;;
22648;SDS011;11491;41.942;24.220;2023-04-09T00:54:45;24.75;;;15.18;;
22648;SDS011;11491;41.942;24.220;2023-04-09T00:57:12;27.92;;;16.65;;
22648;SDS011;11491;41.942;24.220;2023-04-09T00:59:41;27.40;;;16.92;;
22648;SDS011;11491;41.942;24.220;2023-04-09T01:02:08;25.23;;;15.90;;
22648;SDS011;11491;41.942;24.220;2023-04-09T01:04:35;25.40;;;16.27;;
22648;SDS011;11491;41.942;24.220;2023-04-09T01:07:04;27.40;;;16.95;;
22648;SDS011;11491;41.942;24.220;2023-04-09T01:09:38;25.85;;;16.60;;
22648;SDS011;11491;41.942;24.220;2023-04-09T01:12:10;26.65;;;16.92;;
22648;SDS011;11491;41.942;24.220;2023-04-09T01:14:44;25.33;;;16.15;;
22648;SDS011;11491;41.942;24.220;2023-04-09T01:17:21;23.50;;;15.23;;
22648;SDS011;11491;41.942;24.220;2023-04-09T01:19:53;23.58;;;14.30;;
22648;SDS011;11491;41.942;24.220;2023-04-09T01:22:36;19.30;;;13.40;;
22648;SDS011;11491;41.942;24.220;2023-04-09T01:25:16;22.83;;;14.75;;
22648;SDS011;11491;41.942;24.220;2023-04-09T01:28:02;21.33;;;14.25;;
22648;SDS011;11491;41.942;24.220;2023-04-09T01:30:36;26.27;;;17.80;;
22648;SDS011;11491;41.942;24.220;2023-04-09T01:33:04;26.35;;;16.95;;
22648;SDS011;11491;41.942;24.220;2023-04-09T01:35:31;26.05;;;17.40;;
22648;SDS011;11491;41.942;24.220;2023-04-09T01:37:58;29.50;;;18.98;;
22648;SDS011;11491;41.942;24.220;2023-04-09T01:40:26;27.67;;;19.10;;
22648;SDS011;11491;41.942;24.220;2023-04-09T01:42:53;29.13;;;18.40;;
22648;SDS011;11491;41.942;24.220;2023-04-09T01:45:23;28.95;;;19.17;;
22648;SDS011;11491;41.942;24.220;2023-04-09T01:47:51;27.38;;;17.80;;
22648;SDS011;11491;41.942;24.220;2023-04-09T01:50:19;25.58;;;17.25;;
22648;SDS011;11491;41.942;24.220;2023-04-09T01:52:47;27.40;;;18.33;;
22648;SDS011;11491;41.942;24.220;2023-04-09T01:55:14;27.08;;;18.80;;
22648;SDS011;11491;41.942;24.220;2023-04-09T01:57:40;28.17;;;16.83;;
22648;SDS011;11491;41.942;24.220;2023-04-09T02:00:08;24.40;;;16.30;;
22648;SDS011;11491;41.942;24.220;2023-04-09T02:02:39;24.75;;;16.55;;
22648;SDS011;11491;41.942;24.220;2023-04-09T02:05:11;23.85;;;15.45;;
22648;SDS011;11491;41.942;24.220;2023-04-09T02:07:44;27.77;;;16.05;;
22648;SDS011;11491;41.942;24.220;2023-04-09T02:10:15;23.60;;;15.07;;
22648;SDS011;11491;41.942;24.220;2023-04-09T02:12:43;24.08;;;15.02;;
22648;SDS011;11491;41.942;24.220;2023-04-09T02:15:14;23.58;;;15.00;;
22648;SDS011;11491;41.942;24.220;2023-04-09T02:17:42;21.35;;;14.50;;
22648;SDS011;11491;41.942;24.220;2023-04-09T02:20:10;20.20;;;14.45;;
22648;SDS011;11491;41.942;24.220;2023-04-09T02:22:42;21.92;;;14.77;;
22648;SDS011;11491;41.942;24.220;2023-04-09T02:25:09;24.70;;;15.73;;
22648;SDS011;11491;41.942;24.220;2023-04-09T02:27:36;43.13;;;24.10;;
22648;SDS011;11491;41.942;24.220;2023-04-09T02:30:03;21.50;;;14.45;;
22648;SDS011;11491;41.942;24.220;2023-04-09T02:32:30;23.13;;;15.35;;
22648;SDS011;11491;41.942;24.220;2023-04-09T02:34:58;19.48;;;13.93;;
22648;SDS011;11491;41.942;24.220;2023-04-09T02:37:25;21.45;;;14.40;;
22648;SDS011;11491;41.942;24.220;2023-04-09T02:39:52;28.17;;;19.48;;
22648;SDS011;11491;41.942;24.220;2023-04-09T02:42:18;21.73;;;15.23;;
22648;SDS011;11491;41.942;24.220;2023-04-09T02:44:45;20.83;;;14.15;;
22648;SDS011;11491;41.942;24.220;2023-04-09T02:47:12;25.45;;;16.80;;
22648;SDS011;11491;41.942;24.220;2023-04-09T02:49:39;21.13;;;14.20;;
22648;SDS011;11491;41.942;24.220;2023-04-09T02:52:08;22.42;;;14.88;;
22648;SDS011;11491;41.942;24.220;2023-04-09T02:54:35;25.17;;;15.50;;
22648;SDS011;11491;41.942;24.220;2023-04-09T02:57:01;21.60;;;14.25;;
22648;SDS011;11491;41.942;24.220;2023-04-09T02:59:28;23.08;;;13.80;;
22648;SDS011;11491;41.942;24.220;2023-04-09T03:01:57;23.40;;;13.93;;
22648;SDS011;11491;41.942;24.220;2023-04-09T03:04:23;21.35;;;14.55;;
22648;SDS011;11491;41.942;24.220;2023-04-09T03:06:50;50.17;;;31.63;;
22648;SDS011;11491;41.942;24.220;2023-04-09T03:09:18;42.15;;;26.35;;
22648;SDS011;11491;41.942;24.220;2023-04-09T03:11:45;37.15;;;21.75;;
22648;SDS011;11491;41.942;24.220;2023-04-09T03:14:12;24.45;;;17.65;;
22648;SDS011;11491;41.942;24.220;2023-04-09T03:16:38;27.35;;;17.60;;
22648;SDS011;11491;41.942;24.220;2023-04-09T03:19:05;31.02;;;19.80;;
22648;SDS011;11491;41.942;24.220;2023-04-09T03:21:32;39.42;;;24.80;;
22648;SDS011;11491;41.942;24.220;2023-04-09T03:23:58;49.47;;;30.45;;
22648;SDS011;11491;41.942;24.220;2023-04-09T03:26:27;38.33;;;25.02;;
22648;SDS011;11491;41.942;24.220;2023-04-09T03:29:00;43.40;;;28.20;;
22648;SDS011;11491;41.942;24.220;2023-04-09T03:31:26;34.17;;;23.85;;
22648;SDS011;11491;41.942;24.220;2023-04-09T03:33:53;35.17;;;22.95;;
22648;SDS011;11491;41.942;24.220;2023-04-09T03:36:20;31.05;;;19.75;;
22648;SDS011;11491;41.942;24.220;2023-04-09T03:38:47;33.38;;;19.35;;
22648;SDS011;11491;41.942;24.220;2023-04-09T03:41:13;27.55;;;16.83;;
22648;SDS011;11491;41.942;24.220;2023-04-09T03:43:42;28.10;;;16.30;;
22648;SDS011;11491;41.942;24.220;2023-04-09T03:46:12;25.10;;;17.38;;
22648;SDS011;11491;41.942;24.220;2023-04-09T03:48:39;29.65;;;16.15;;
22648;SDS011;11491;41.942;24.220;2023-04-09T03:51:05;25.73;;;16.98;;
22648;SDS011;11491;41.942;24.220;2023-04-09T03:53:36;33.45;;;20.10;;
22648;SDS011;11491;41.942;24.220;2023-04-09T03:56:03;73.65;;;41.13;;
22648;SDS011;11491;41.942;24.220;2023-04-09T03:58:30;37.28;;;25.13;;
22648;SDS011;11491;41.942;24.220;2023-04-09T04:00:58;35.60;;;23.98;;
22648;SDS011;11491;41.942;24.220;2023-04-09T04:03:25;35.97;;;23.33;;
22648;SDS011;11491;41.942;24.220;2023-04-09T04:05:51;30.70;;;20.52;;
22648;SDS011;11491;41.942;24.220;2023-04-09T04:08:18;37.17;;;23.30;;
22648;SDS011;11491;41.942;24.220;2023-04-09T04:10:45;39.75;;;26.33;;
22648;SDS011;11491;41.942;24.220;2023-04-09T04:13:12;34.50;;;23.23;;
22648;SDS011;11491;41.942;24.220;2023-04-09T04:15:38;43.83;;;28.42;;
22648;SDS011;11491;41.942;24.220;2023-04-09T04:18:07;48.58;;;28.88;;
22648;SDS011;11491;41.942;24.220;2023-04-09T04:20:34;51.67;;;32.80;;
22648;SDS011;11491;41.942;24.220;2023-04-09T04:23:02;39.92;;;28.13;;
22648;SDS011;11491;41.942;24.220;2023-04-09T04:25:29;45.40;;;28.60;;
22648;SDS011;11491;41.942;24.220;2023-04-09T04:27:56;35.40;;;23.58;;
22648;SDS011;11491;41.942;24.220;2023-04-09T04:30:22;53.85;;;34.83;;
22648;SDS011;11491;41.942;24.220;2023-04-09T04:32:49;37.15;;;26.85;;
22648;SDS011;11491;41.942;24.220;2023-04-09T04:35:17;28.50;;;19.23;;
22648;SDS011;11491;41.942;24.220;2023-04-09T04:37:48;39.45;;;25.25;;
22648;SDS011;11491;41.942;24.220;2023-04-09T04:40:16;53.67;;;36.90;;
22648;SDS011;11491;41.942;24.220;2023-04-09T04:42:43;85.47;;;53.15;;
22648;SDS011;11491;41.942;24.220;2023-04-09T04:45:09;125.13;;;71.43;;
22648;SDS011;11491;41.942;24.220;2023-04-09T04:47:36;145.50;;;82.15;;
22648;SDS011;11491;41.942;24.220;2023-04-09T04:50:03;76.15;;;50.60;;
22648;SDS011;11491;41.942;24.220;2023-04-09T04:52:33;63.60;;;43.63;;
22648;SDS011;11491;41.942;24.220;2023-04-09T04:54:59;71.38;;;48.65;;
22648;SDS011;11491;41.942;24.220;2023-04-09T04:57:26;93.28;;;61.28;;
22648;SDS011;11491;41.942;24.220;2023-04-09T04:59:53;132.88;;;83.13;;
22648;SDS011;11491;41.942;24.220;2023-04-09T05:02:19;211.65;;;136.20;;
22648;SDS011;11491;41.942;24.220;2023-04-09T05:04:46;99.60;;;72.60;;
22648;SDS011;11491;41.942;24.220;2023-04-09T05:07:13;113.95;;;75.10;;
22648;SDS011;11491;41.942;24.220;2023-04-09T05:09:41;93.57;;;61.30;;
22648;SDS011;11491;41.942;24.220;2023-04-09T05:12:08;101.95;;;63.95;;
22648;SDS011;11491;41.942;24.220;2023-04-09T05:14:35;105.22;;;65.20;;
22648;SDS011;11491;41.942;24.220;2023-04-09T05:17:02;112.47;;;69.97;;
22648;SDS011;11491;41.942;24.220;2023-04-09T05:19:28;78.40;;;51.47;;
22648;SDS011;11491;41.942;24.220;2023-04-09T05:21:55;102.88;;;62.63;;
22648;SDS011;11491;41.942;24.220;2023-04-09T05:24:22;85.93;;;55.85;;
22648;SDS011;11491;41.942;24.220;2023-04-09T05:26:50;78.43;;;53.35;;
22648;SDS011;11491;41.942;24.220;2023-04-09T05:29:16;75.57;;;49.85;;
22648;SDS011;11491;41.942;24.220;2023-04-09T05:31:43;141.73;;;73.53;;
22648;SDS011;11491;41.942;24.220;2023-04-09T05:34:10;121.38;;;73.30;;
22648;SDS011;11491;41.942;24.220;2023-04-09T05:36:37;118.00;;;77.22;;
22648;SDS011;11491;41.942;24.220;2023-04-09T05:39:03;107.70;;;69.22;;
22648;SDS011;11491;41.942;24.220;2023-04-09T05:41:30;110.68;;;73.15;;
22648;SDS011;11491;41.942;24.220;2023-04-09T05:43:59;71.57;;;48.90;;
22648;SDS011;11491;41.942;24.220;2023-04-09T05:46:25;65.07;;;45.15;;
22648;SDS011;11491;41.942;24.220;2023-04-09T05:48:53;63.78;;;45.08;;
22648;SDS011;11491;41.942;24.220;2023-04-09T05:51:19;69.32;;;50.60;;
22648;SDS011;11491;41.942;24.220;2023-04-09T05:53:46;63.17;;;44.85;;
22648;SDS011;11491;41.942;24.220;2023-04-09T05:56:13;61.28;;;41.13;;
22648;SDS011;11491;41.942;24.220;2023-04-09T05:58:40;58.67;;;41.83;;
22648;SDS011;11491;41.942;24.220;2023-04-09T06:01:09;68.85;;;49.28;;
22648;SDS011;11491;41.942;24.220;2023-04-09T06:03:36;58.30;;;41.38;;
22648;SDS011;11491;41.942;24.220;2023-04-09T06:06:03;44.42;;;32.92;;
22648;SDS011;11491;41.942;24.220;2023-04-09T06:08:30;26.52;;;19.75;;
22648;SDS011;11491;41.942;24.220;2023-04-09T06:10:56;53.97;;;39.30;;
22648;SDS011;11491;41.942;24.220;2023-04-09T06:13:23;66.53;;;48.25;;
22648;SDS011;11491;41.942;24.220;2023-04-09T06:15:50;62.10;;;43.78;;
22648;SDS011;11491;41.942;24.220;2023-04-09T06:18:18;71.28;;;46.63;;
22648;SDS011;11491;41.942;24.220;2023-04-09T06:20:46;66.25;;;44.60;;
22648;SDS011;11491;41.942;24.220;2023-04-09T06:23:12;56.63;;;38.80;;
22648;SDS011;11491;41.942;24.220;2023-04-09T06:25:39;70.68;;;44.40;;
22648;SDS011;11491;41.942;24.220;2023-04-09T06:28:06;63.78;;;42.60;;
22648;SDS011;11491;41.942;24.220;2023-04-09T06:30:33;57.67;;;35.63;;
22648;SDS011;11491;41.942;24.220;2023-04-09T06:33:01;62.92;;;36.90;;
22648;SDS011;11491;41.942;24.220;2023-04-09T06:35:31;61.75;;;36.80;;
22648;SDS011;11491;41.942;24.220;2023-04-09T06:37:58;47.80;;;29.58;;
22648;SDS011;11491;41.942;24.220;2023-04-09T06:40:24;54.08;;;32.08;;
22648;SDS011;11491;41.942;24.220;2023-04-09T06:42:51;46.05;;;26.85;;
22648;SDS011;11491;41.942;24.220;2023-04-09T06:45:18;41.22;;;25.70;;
22648;SDS011;11491;41.942;24.220;2023-04-09T06:47:45;40.03;;;23.45;;
22648;SDS011;11491;41.942;24.220;2023-04-09T06:50:11;35.38;;;21.25;;
22648;SDS011;11491;41.942;24.220;2023-04-09T06:52:40;40.53;;;23.33;;
22648;SDS011;11491;41.942;24.220;2023-04-09T06:55:07;37.95;;;25.08;;
22648;SDS011;11491;41.942;24.220;2023-04-09T06:57:34;35.15;;;23.13;;
22648;SDS011;11491;41.942;24.220;2023-04-09T07:00:02;37.72;;;26.08;;
22648;SDS011;11491;41.942;24.220;2023-04-09T07:02:30;55.33;;;34.25;;
22648;SDS011;11491;41.942;24.220;2023-04-09T07:04:56;55.10;;;38.22;;
22648;SDS011;11491;41.942;24.220;2023-04-09T07:07:23;86.90;;;51.58;;
22648;SDS011;11491;41.942;24.220;2023-04-09T07:09:51;41.42;;;27.10;;
22648;SDS011;11491;41.942;24.220;2023-04-09T07:12:25;49.58;;;38.22;;
22648;SDS011;11491;41.942;24.220;2023-04-09T07:14:52;61.03;;;43.00;;
22648;SDS011;11491;41.942;24.220;2023-04-09T07:17:18;49.38;;;34.33;;
22648;SDS011;11491;41.942;24.220;2023-04-09T07:19:45;44.28;;;32.35;;
22648;SDS011;11491;41.942;24.220;2023-04-09T07:22:12;46.03;;;31.38;;
22648;SDS011;11491;41.942;24.220;2023-04-09T07:24:39;43.38;;;29.20;;
22648;SDS011;11491;41.942;24.220;2023-04-09T07:27:07;39.92;;;29.58;;
22648;SDS011;11491;41.942;24.220;2023-04-09T07:29:33;42.00;;;30.05;;
22648;SDS011;11491;41.942;24.220;2023-04-09T07:32:00;24.73;;;17.55;;
22648;SDS011;11491;41.942;24.220;2023-04-09T07:34:27;36.47;;;26.27;;
22648;SDS011;11491;41.942;24.220;2023-04-09T07:36:54;40.88;;;30.45;;
22648;SDS011;11491;41.942;24.220;2023-04-09T07:39:21;33.65;;;24.67;;
22648;SDS011;11491;41.942;24.220;2023-04-09T07:41:48;45.80;;;31.75;;
22648;SDS011;11491;41.942;24.220;2023-04-09T07:44:16;36.80;;;25.48;;
22648;SDS011;11491;41.942;24.220;2023-04-09T07:46:42;49.63;;;35.33;;
22648;SDS011;11491;41.942;24.220;2023-04-09T07:49:09;32.42;;;23.60;;
22648;SDS011;11491;41.942;24.220;2023-04-09T07:51:36;28.95;;;20.85;;
22648;SDS011;11491;41.942;24.220;2023-04-09T07:54:03;21.23;;;15.20;;
22648;SDS011;11491;41.942;24.220;2023-04-09T07:56:29;33.50;;;23.83;;
22648;SDS011;11491;41.942;24.220;2023-04-09T07:58:56;29.10;;;20.40;;
22648;SDS011;11491;41.942;24.220;2023-04-09T08:01:24;22.02;;;15.73;;
22648;SDS011;11491;41.942;24.220;2023-04-09T08:03:51;32.75;;;20.40;;
22648;SDS011;11491;41.942;24.220;2023-04-09T08:06:18;28.90;;;18.55;;
22648;SDS011;11491;41.942;24.220;2023-04-09T08:08:45;33.30;;;21.63;;
22648;SDS011;11491;41.942;24.220;2023-04-09T08:11:11;48.17;;;29.75;;
22648;SDS011;11491;41.942;24.220;2023-04-09T08:13:38;32.72;;;22.13;;
22648;SDS011;11491;41.942;24.220;2023-04-09T08:16:05;47.33;;;23.77;;
22648;SDS011;11491;41.942;24.220;2023-04-09T08:18:33;51.20;;;33.08;;
22648;SDS011;11491;41.942;24.220;2023-04-09T08:21:03;41.00;;;27.58;;
22648;SDS011;11491;41.942;24.220;2023-04-09T08:23:30;57.97;;;36.85;;
22648;SDS011;11491;41.942;24.220;2023-04-09T08:25:56;27.35;;;18.13;;
22648;SDS011;11491;41.942;24.220;2023-04-09T08:28:23;38.00;;;23.25;;
22648;SDS011;11491;41.942;24.220;2023-04-09T08:30:50;55.67;;;28.60;;
22648;SDS011;11491;41.942;24.220;2023-04-09T08:33:16;56.42;;;36.47;;
22648;SDS011;11491;41.942;24.220;2023-04-09T08:35:45;41.22;;;27.10;;
22648;SDS011;11491;41.942;24.220;2023-04-09T08:38:11;36.50;;;24.20;;
22648;SDS011;11491;41.942;24.220;2023-04-09T08:40:39;32.78;;;22.33;;
22648;SDS011;11491;41.942;24.220;2023-04-09T08:43:06;36.60;;;22.65;;
22648;SDS011;11491;41.942;24.220;2023-04-09T08:45:33;49.97;;;30.10;;
22648;SDS011;11491;41.942;24.220;2023-04-09T08:48:01;34.08;;;20.60;;
22648;SDS011;11491;41.942;24.220;2023-04-09T08:50:31;51.08;;;28.63;;
22648;SDS011;11491;41.942;24.220;2023-04-09T08:53:00;47.53;;;30.48;;
22648;SDS011;11491;41.942;24.220;2023-04-09T08:55:28;51.50;;;30.52;;
22648;SDS011;11491;41.942;24.220;2023-04-09T08:57:55;49.90;;;29.73;;
22648;SDS011;11491;41.942;24.220;2023-04-09T09:00:22;36.50;;;23.00;;
22648;SDS011;11491;41.942;24.220;2023-04-09T09:03:00;35.58;;;21.02;;
22648;SDS011;11491;41.942;24.220;2023-04-09T09:05:34;35.60;;;21.05;;
22648;SDS011;11491;41.942;24.220;2023-04-09T09:08:02;39.97;;;25.27;;
22648;SDS011;11491;41.942;24.220;2023-04-09T09:10:35;47.50;;;26.63;;
22648;SDS011;11491;41.942;24.220;2023-04-09T09:18:18;47.03;;;26.17;;
22648;SDS011;11491;41.942;24.220;2023-04-09T09:20:44;40.67;;;26.58;;
22648;SDS011;11491;41.942;24.220;2023-04-09T09:23:13;41.63;;;26.83;;
22648;SDS011;11491;41.942;24.220;2023-04-09T09:25:40;30.00;;;19.50;;
22648;SDS011;11491;41.942;24.220;2023-04-09T09:28:07;36.60;;;25.73;;
22648;SDS011;11491;41.942;24.220;2023-04-09T09:30:35;50.08;;;33.88;;
22648;SDS011;11491;41.942;24.220;2023-04-09T09:33:04;29.55;;;20.70;;
22648;SDS011;11491;41.942;24.220;2023-04-09T09:35:45;32.00;;;21.20;;
22648;SDS011;11491;41.942;24.220;2023-04-09T09:38:15;29.88;;;20.58;;
22648;SDS011;11491;41.942;24.220;2023-04-09T09:40:42;42.42;;;26.35;;
22648;SDS011;11491;41.942;24.220;2023-04-09T09:43:09;34.95;;;23.88;;
22648;SDS011;11491;41.942;24.220;2023-04-09T09:45:37;35.85;;;24.58;;
22648;SDS011;11491;41.942;24.220;2023-04-09T09:48:05;48.60;;;32.95;;
22648;SDS011;11491;41.942;24.220;2023-04-09T09:50:33;37.15;;;24.85;;
22648;SDS011;11491;41.942;24.220;2023-04-09T09:53:01;37.95;;;22.98;;
22648;SDS011;11491;41.942;24.220;2023-04-09T09:55:32;37.95;;;24.88;;
22648;SDS011;11491;41.942;24.220;2023-04-09T09:58:08;41.00;;;26.87;;
22648;SDS011;11491;41.942;24.220;2023-04-09T10:00:41;30.90;;;19.02;;
22648;SDS011;11491;41.942;24.220;2023-04-09T10:03:11;28.30;;;17.60;;
22648;SDS011;11491;41.942;24.220;2023-04-09T10:05:41;59.17;;;40.55;;
22648;SDS011;11491;41.942;24.220;2023-04-09T10:08:08;42.80;;;29.13;;
22648;SDS011;11491;41.942;24.220;2023-04-09T10:10:37;34.30;;;21.48;;
22648;SDS011;11491;41.942;24.220;2023-04-09T10:13:06;30.17;;;18.77;;
22648;SDS011;11491;41.942;24.220;2023-04-09T10:15:39;50.50;;;30.67;;
22648;SDS011;11491;41.942;24.220;2023-04-09T10:18:07;41.85;;;25.00;;
22648;SDS011;11491;41.942;24.220;2023-04-09T10:20:35;30.75;;;19.98;;
22648;SDS011;11491;41.942;24.220;2023-04-09T10:23:08;46.70;;;26.80;;
22648;SDS011;11491;41.942;24.220;2023-04-09T10:25:42;40.00;;;23.85;;
22648;SDS011;11491;41.942;24.220;2023-04-09T10:28:13;55.33;;;32.08;;
22648;SDS011;11491;41.942;24.220;2023-04-09T10:30:41;57.72;;;34.42;;
22648;SDS011;11491;41.942;24.220;2023-04-09T10:33:09;43.58;;;25.52;;
22648;SDS011;11491;41.942;24.220;2023-04-09T10:35:36;39.13;;;23.92;;
22648;SDS011;11491;41.942;24.220;2023-04-09T10:38:05;41.05;;;26.42;;
22648;SDS011;11491;41.942;24.220;2023-04-09T10:40:33;38.00;;;21.50;;
22648;SDS011;11491;41.942;24.220;2023-04-09T10:43:04;41.58;;;24.42;;
22648;SDS011;11491;41.942;24.220;2023-04-09T10:45:38;56.00;;;34.42;;
22648;SDS011;11491;41.942;24.220;2023-04-09T10:48:10;47.22;;;28.95;;
22648;SDS011;11491;41.942;24.220;2023-04-09T10:50:38;41.78;;;25.73;;
22648;SDS011;11491;41.942;24.220;2023-04-09T10:53:09;40.00;;;24.35;;
22648;SDS011;11491;41.942;24.220;2023-04-09T10:55:47;42.70;;;27.10;;
22648;SDS011;11491;41.942;24.220;2023-04-09T10:58:16;50.08;;;32.38;;
22648;SDS011;11491;41.942;24.220;2023-04-09T11:00:44;45.42;;;26.88;;
22648;SDS011;11491;41.942;24.220;2023-04-09T11:03:17;52.10;;;31.27;;
22648;SDS011;11491;41.942;24.220;2023-04-09T11:05:47;76.15;;;47.05;;
22648;SDS011;11491;41.942;24.220;2023-04-09T11:08:16;81.85;;;52.42;;
22648;SDS011;11491;41.942;24.220;2023-04-09T11:10:44;80.85;;;47.58;;
22648;SDS011;11491;41.942;24.220;2023-04-09T11:13:12;82.88;;;48.20;;
22648;SDS011;11491;41.942;24.220;2023-04-09T11:15:41;49.00;;;31.60;;
22648;SDS011;11491;41.942;24.220;2023-04-09T11:18:12;75.63;;;46.15;;
22648;SDS011;11491;41.942;24.220;2023-04-09T11:20:39;73.95;;;45.67;;
22648;SDS011;11491;41.942;24.220;2023-04-09T11:23:06;59.53;;;37.85;;
22648;SDS011;11491;41.942;24.220;2023-04-09T11:25:33;57.17;;;36.70;;
22648;SDS011;11491;41.942;24.220;2023-04-09T11:28:01;57.17;;;34.33;;
22648;SDS011;11491;41.942;24.220;2023-04-09T11:30:30;58.80;;;35.33;;
22648;SDS011;11491;41.942;24.220;2023-04-09T11:33:00;45.15;;;27.05;;
22648;SDS011;11491;41.942;24.220;2023-04-09T11:35:27;54.83;;;31.88;;
22648;SDS011;11491;41.942;24.220;2023-04-09T11:37:54;49.08;;;29.40;;
22648;SDS011;11491;41.942;24.220;2023-04-09T11:40:22;52.92;;;32.35;;
22648;SDS011;11491;41.942;24.220;2023-04-09T11:42:51;66.65;;;38.70;;
22648;SDS011;11491;41.942;24.220;2023-04-09T11:45:19;47.25;;;27.90;;
22648;SDS011;11491;41.942;24.220;2023-04-09T11:47:48;66.40;;;40.20;;
22648;SDS011;11491;41.942;24.220;2023-04-09T11:50:16;50.97;;;27.17;;
22648;SDS011;11491;41.942;24.220;2023-04-09T11:52:45;46.45;;;25.63;;
22648;SDS011;11491;41.942;24.220;2023-04-09T11:55:21;47.17;;;26.48;;
22648;SDS011;11491;41.942;24.220;2023-04-09T11:57:52;51.35;;;31.05;;
22648;SDS011;11491;41.942;24.220;2023-04-09T12:00:19;54.78;;;31.73;;
22648;SDS011;11491;41.942;24.220;2023-04-09T12:02:49;62.70;;;34.20;;
22648;SDS011;11491;41.942;24.220;2023-04-09T12:05:21;66.10;;;36.63;;
22648;SDS011;11491;41.942;24.220;2023-04-09T12:07:49;90.97;;;50.03;;
22648;SDS011;11491;41.942;24.220;2023-04-09T12:10:16;79.75;;;42.17;;
22648;SDS011;11491;41.942;24.220;2023-04-09T12:12:44;139.15;;;72.70;;
22648;SDS011;11491;41.942;24.220;2023-04-09T12:15:17;179.07;;;87.05;;
22648;SDS011;11491;41.942;24.220;2023-04-09T12:17:46;82.20;;;46.53;;
22648;SDS011;11491;41.942;24.220;2023-04-09T12:20:26;76.85;;;40.10;;
22648;SDS011;11491;41.942;24.220;2023-04-09T12:22:57;85.07;;;45.33;;
22648;SDS011;11491;41.942;24.220;2023-04-09T12:25:25;82.30;;;44.28;;
22648;SDS011;11491;41.942;24.220;2023-04-09T12:27:52;93.13;;;52.60;;
22648;SDS011;11491;41.942;24.220;2023-04-09T12:30:20;111.13;;;63.25;;
22648;SDS011;11491;41.942;24.220;2023-04-09T12:32:47;74.13;;;45.95;;
22648;SDS011;11491;41.942;24.220;2023-04-09T12:35:14;87.72;;;49.22;;
22648;SDS011;11491;41.942;24.220;2023-04-09T12:37:42;97.35;;;53.47;;
22648;SDS011;11491;41.942;24.220;2023-04-09T12:40:09;72.95;;;43.15;;
22648;SDS011;11491;41.942;24.220;2023-04-09T12:42:38;77.18;;;44.55;;
22648;SDS011;11491;41.942;24.220;2023-04-09T12:45:05;59.70;;;35.53;;
22648;SDS011;11491;41.942;24.220;2023-04-09T12:47:33;76.88;;;44.60;;
22648;SDS011;11491;41.942;24.220;2023-04-09T12:50:00;83.57;;;47.40;;
22648;SDS011;11491;41.942;24.220;2023-04-09T12:52:27;91.25;;;47.53;;
22648;SDS011;11491;41.942;24.220;2023-04-09T12:54:55;61.30;;;36.35;;
22648;SDS011;11491;41.942;24.220;2023-04-09T12:57:22;54.45;;;32.75;;
22648;SDS011;11491;41.942;24.220;2023-04-09T12:59:48;99.10;;;57.83;;
22648;SDS011;11491;41.942;24.220;2023-04-09T13:02:15;70.28;;;43.05;;
22648;SDS011;11491;41.942;24.220;2023-04-09T13:04:42;98.53;;;54.72;;
22648;SDS011;11491;41.942;24.220;2023-04-09T13:07:09;72.20;;;41.58;;
22648;SDS011;11491;41.942;24.220;2023-04-09T13:09:37;67.10;;;38.72;;
22648;SDS011;11491;41.942;24.220;2023-04-09T13:12:05;86.88;;;50.58;;
22648;SDS011;11491;41.942;24.220;2023-04-09T13:14:31;70.28;;;42.22;;
22648;SDS011;11491;41.942;24.220;2023-04-09T13:16:58;99.45;;;57.47;;
22648;SDS011;11491;41.942;24.220;2023-04-09T13:19:25;90.30;;;55.75;;
22648;SDS011;11491;41.942;24.220;2023-04-09T13:21:52;85.68;;;48.85;;
22648;SDS011;11491;41.942;24.220;2023-04-09T13:24:19;140.02;;;76.47;;
22648;SDS011;11491;41.942;24.220;2023-04-09T13:26:46;127.30;;;70.47;;
22648;SDS011;11491;41.942;24.220;2023-04-09T13:29:14;79.40;;;50.10;;
22648;SDS011;11491;41.942;24.220;2023-04-09T13:31:40;53.38;;;32.38;;
22648;SDS011;11491;41.942;24.220;2023-04-09T13:34:07;71.82;;;44.47;;
22648;SDS011;11491;41.942;24.220;2023-04-09T13:36:34;61.17;;;35.72;;
22648;SDS011;11491;41.942;24.220;2023-04-09T13:39:00;55.65;;;37.13;;
22648;SDS011;11491;41.942;24.220;2023-04-09T13:41:29;61.03;;;34.58;;
22648;SDS011;11491;41.942;24.220;2023-04-09T13:43:57;83.78;;;57.60;;
22648;SDS011;11491;41.942;24.220;2023-04-09T13:46:25;38.80;;;25.95;;
22648;SDS011;11491;41.942;24.220;2023-04-09T13:48:53;62.70;;;36.92;;
22648;SDS011;11491;41.942;24.220;2023-04-09T13:51:20;58.80;;;33.45;;
22648;SDS011;11491;41.942;24.220;2023-04-09T13:53:47;42.13;;;26.77;;
22648;SDS011;11491;41.942;24.220;2023-04-09T13:56:13;39.70;;;25.92;;
22648;SDS011;11491;41.942;24.220;2023-04-09T13:58:40;43.28;;;27.50;;
22648;SDS011;11491;41.942;24.220;2023-04-09T14:01:08;54.78;;;36.75;;
22648;SDS011;11491;41.942;24.220;2023-04-09T14:03:36;45.33;;;30.52;;
22648;SDS011;11491;41.942;24.220;2023-04-09T14:06:04;71.28;;;42.42;;
22648;SDS011;11491;41.942;24.220;2023-04-09T14:08:31;69.78;;;45.00;;
22648;SDS011;11491;41.942;24.220;2023-04-09T14:10:58;34.20;;;21.95;;
22648;SDS011;11491;41.942;24.220;2023-04-09T14:13:25;47.05;;;29.42;;
22648;SDS011;11491;41.942;24.220;2023-04-09T14:15:51;41.85;;;28.27;;
22648;SDS011;11491;41.942;24.220;2023-04-09T14:18:18;50.35;;;32.72;;